createdAt,value
2024-05-09T00:03:07.083Z,101087.27
2024-05-09T00:05:53.658Z,101088.80
2024-05-09T00:08:42.000Z,101087.16
2024-05-09T00:11:28.596Z,101090.09
2024-05-09T00:14:16.355Z,101087.09
2024-05-09T00:17:03.185Z,101088.77
2024-05-09T00:19:49.932Z,101085.38
2024-05-09T00:22:36.286Z,101084.94
2024-05-09T00:25:22.295Z,101084.31
2024-05-09T00:28:09.836Z,101083.54
2024-05-09T00:30:55.993Z,101088.14
2024-05-09T00:33:48.026Z,101095.89
2024-05-09T00:36:34.713Z,101091.63
2024-05-09T00:39:20.968Z,101087.88
2024-05-09T00:42:07.560Z,101091.95
2024-05-09T00:44:55.515Z,101093.23
2024-05-09T00:47:53.578Z,101091.23
2024-05-09T00:50:55.104Z,101090.80
2024-05-09T00:53:46.998Z,101085.67
2024-05-09T00:56:35.616Z,101086.77
2024-05-09T00:59:24.322Z,101081.40
2024-05-09T01:02:11.761Z,101075.70
2024-05-09T01:04:59.637Z,101075.74
2024-05-09T01:07:46.345Z,101075.98
2024-05-09T01:10:35.054Z,101076.77
2024-05-09T01:13:22.632Z,101076.67
2024-05-09T01:16:08.944Z,101072.75
2024-05-09T01:18:57.349Z,101075.98
2024-05-09T01:21:44.711Z,101079.54
2024-05-09T01:24:33.258Z,101074.00
2024-05-09T01:27:19.596Z,101070.71
2024-05-09T01:30:09.552Z,101071.46
2024-05-09T01:33:04.636Z,101067.83
2024-05-09T01:35:52.232Z,101072.89
2024-05-09T01:38:38.310Z,101068.39
2024-05-09T01:41:25.464Z,101068.97
2024-05-09T01:44:12.960Z,101070.42
2024-05-09T01:47:01.252Z,101072.55
2024-05-09T01:49:48.313Z,101070.15
2024-05-09T01:52:38.640Z,101073.17
2024-05-09T01:55:25.285Z,101074.98
2024-05-09T01:58:11.574Z,101073.83
2024-05-09T02:00:57.724Z,101073.38
2024-05-09T02:03:47.830Z,101075.52
2024-05-09T02:06:42.768Z,101073.48
2024-05-09T02:09:29.553Z,101080.66
2024-05-09T02:12:16.421Z,101083.19
2024-05-09T02:15:03.349Z,101086.32
2024-05-09T02:17:50.609Z,101087.89
2024-05-09T02:20:41.293Z,101091.75
2024-05-09T02:23:29.194Z,101092.83
2024-05-09T02:26:16.042Z,101096.69
2024-05-09T02:29:03.076Z,101086.79
2024-05-09T02:31:49.792Z,101087.96
2024-05-09T02:34:36.701Z,101089.01
2024-05-09T02:37:22.969Z,101088.27
2024-05-09T02:40:14.506Z,101092.02
2024-05-09T02:43:08.737Z,101092.45
2024-05-09T02:45:57.477Z,101090.10
2024-05-09T02:48:43.640Z,101089.12
2024-05-09T02:51:30.797Z,101090.23
2024-05-09T02:54:17.916Z,101091.16
2024-05-09T02:57:04.738Z,101088.43
2024-05-09T02:59:50.898Z,101092.64
2024-05-09T03:02:37.078Z,101094.23
2024-05-09T03:05:24.271Z,101090.95
2024-05-09T03:08:11.127Z,101094.10
2024-05-09T03:11:00.088Z,101098.66
2024-05-09T03:13:47.470Z,101100.92
2024-05-09T03:16:39.446Z,101104.91
2024-05-09T03:19:26.118Z,101105.20
2024-05-09T03:22:13.191Z,101101.51
2024-05-09T03:24:59.162Z,101103.91
2024-05-09T03:27:45.427Z,101101.31
2024-05-09T03:30:39.951Z,101100.27
2024-05-09T03:33:30.507Z,101103.05
2024-05-09T03:36:17.417Z,101102.86
2024-05-09T03:39:03.630Z,101108.21
2024-05-09T03:41:50.075Z,101111.31
2024-05-09T03:44:36.956Z,101113.16
2024-05-09T03:47:23.771Z,101115.02
2024-05-09T03:50:18.093Z,101113.91
2024-05-09T03:53:14.189Z,101114.02
2024-05-09T03:56:01.455Z,101118.27
2024-05-09T03:58:47.585Z,101119.41
2024-05-09T04:01:36.195Z,101121.05
2024-05-09T04:04:24.608Z,101122.86
2024-05-09T04:07:12.390Z,101121.20
2024-05-09T04:10:00.367Z,101120.22
2024-05-09T04:12:47.515Z,101124.97
2024-05-09T04:15:34.129Z,101126.07
2024-05-09T04:18:20.769Z,101121.95
2024-05-09T04:21:07.906Z,101126.13
2024-05-09T04:24:13.108Z,101125.59
2024-05-09T04:26:59.305Z,101123.96
2024-05-09T04:29:45.341Z,101123.73
2024-05-09T04:32:31.944Z,101122.27
2024-05-09T04:35:20.128Z,101122.71
2024-05-09T04:38:08.404Z,101119.98
2024-05-09T04:40:56.177Z,101124.13
2024-05-09T04:43:43.352Z,101122.61
2024-05-09T04:46:30.154Z,101126.98
2024-05-09T04:49:17.090Z,101124.30
2024-05-09T04:52:04.326Z,101124.70
2024-05-09T04:54:53.059Z,101124.54
2024-05-09T04:57:40.192Z,101126.98
2024-05-09T05:00:34.534Z,101129.25
2024-05-09T05:03:23.574Z,101124.21
2024-05-09T05:06:10.700Z,101122.54
2024-05-09T05:08:57.585Z,101120.98
2024-05-09T05:11:44.188Z,101120.15
2024-05-09T05:14:31.449Z,101117.35
2024-05-09T05:17:17.922Z,101111.74
2024-05-09T05:20:05.957Z,101108.21
2024-05-09T05:22:55.145Z,101109.52
2024-05-09T05:25:42.412Z,101103.97
2024-05-09T05:28:28.751Z,101103.80
2024-05-09T05:31:15.588Z,101101.60
2024-05-09T05:34:02.634Z,101096.49
2024-05-09T05:36:49.303Z,101098.59
2024-05-09T05:39:35.606Z,101096.04
2024-05-09T05:42:22.317Z,101101.02
2024-05-09T05:45:09.915Z,101102.06
2024-05-09T05:47:57.765Z,101095.14
2024-05-09T05:50:46.246Z,101095.69
2024-05-09T05:53:33.163Z,101095.30
2024-05-09T05:56:20.444Z,101096.47
2024-05-09T05:59:11.964Z,101099.15
2024-05-09T06:02:00.314Z,101102.30
2024-05-09T06:04:47.022Z,101103.91
2024-05-09T06:07:33.966Z,101107.13
2024-05-09T06:10:25.478Z,101107.52
2024-05-09T06:13:16.125Z,101110.46
2024-05-09T06:16:04.840Z,101107.67
2024-05-09T06:18:51.318Z,101109.10
2024-05-09T06:21:37.772Z,101118.20
2024-05-09T06:24:24.127Z,101117.72
2024-05-09T06:27:10.180Z,101124.77
2024-05-09T06:29:58.534Z,101121.84
2024-05-09T06:32:45.805Z,101123.56
2024-05-09T06:35:32.705Z,101118.09
2024-05-09T06:38:19.619Z,101119.11
2024-05-09T06:41:06.414Z,101118.80
2024-05-09T06:43:52.931Z,101116.68
2024-05-09T06:46:41.826Z,101120.55
2024-05-09T06:49:30.690Z,101114.78
2024-05-09T06:52:20.616Z,101114.95
2024-05-09T06:55:07.055Z,101110.44
2024-05-09T06:57:53.333Z,101110.70
2024-05-09T07:00:41.593Z,101104.98
2024-05-09T07:03:31.843Z,101108.05
2024-05-09T07:06:18.481Z,101108.62
2024-05-09T07:09:06.584Z,101113.83
2024-05-09T07:11:53.079Z,101111.75
2024-05-09T07:14:39.096Z,101110.71
2024-05-09T07:17:27.383Z,101111.67
2024-05-09T07:20:23.207Z,101107.08
2024-05-09T07:23:15.946Z,101106.90
2024-05-09T07:26:02.880Z,101106.33
2024-05-09T07:28:49.408Z,101105.15
2024-05-09T07:31:35.996Z,101103.56
2024-05-09T07:34:22.376Z,101101.40
2024-05-09T07:37:12.656Z,101103.06
2024-05-09T07:40:01.142Z,101104.27
2024-05-09T07:42:47.096Z,101107.42
2024-05-09T07:50:00.649Z,101105.83
2024-05-09T07:54:31.030Z,101099.41
2024-05-09T07:57:17.864Z,101099.61
2024-05-09T08:00:08.322Z,101095.34
2024-05-09T08:02:58.400Z,101094.84
2024-05-09T08:05:44.798Z,101094.75
2024-05-09T08:08:32.763Z,101085.39
2024-05-09T08:11:22.674Z,101085.98
2024-05-09T08:14:11.055Z,101091.41
2024-05-09T08:16:57.094Z,101094.92
2024-05-09T08:19:43.583Z,101099.05
2024-05-09T08:22:32.135Z,101101.98
2024-05-09T08:25:19.038Z,101105.20
2024-05-09T08:28:07.835Z,101102.89
2024-05-09T08:30:54.235Z,101097.59
2024-05-09T08:33:47.125Z,101094.03
2024-05-09T08:36:33.723Z,101089.44
2024-05-09T08:39:21.965Z,101091.63
2024-05-09T08:42:10.314Z,101090.05
2024-05-09T08:44:56.347Z,101096.03
2024-05-09T08:47:46.658Z,101093.60
2024-05-09T08:50:38.667Z,101087.99
2024-05-09T08:53:26.141Z,101087.85
2024-05-09T08:56:15.351Z,101094.48
2024-05-09T08:59:05.831Z,101085.52
2024-05-09T09:01:51.864Z,101086.47
2024-05-09T09:04:41.413Z,101085.58
2024-05-09T09:07:33.178Z,101088.98
2024-05-09T09:14:09.144Z,101095.34
2024-05-09T10:17:08.485Z,101076.58
2024-05-09T10:20:21.414Z,101070.16
2024-05-09T10:36:43.577Z,101062.35
2024-05-09T10:39:58.963Z,101059.17
2024-05-09T10:42:46.481Z,101058.49
2024-05-09T10:45:34.942Z,101053.05
2024-05-09T10:48:21.519Z,101052.70
2024-05-09T10:51:09.951Z,101053.88
2024-05-09T10:53:58.943Z,101048.36
2024-05-09T10:56:45.422Z,101039.33
2024-05-09T10:59:39.423Z,101038.92
2024-05-09T11:02:27.896Z,101036.88
2024-05-09T11:05:14.624Z,101037.55
2024-05-09T11:08:02.694Z,101039.64
2024-05-09T11:10:53.783Z,101038.77
2024-05-09T11:13:41.103Z,101042.05
2024-05-09T11:16:27.365Z,101035.23
2024-05-09T11:19:14.665Z,101028.55
2024-05-09T11:22:02.078Z,101028.10
2024-05-09T11:24:48.719Z,101023.36
2024-05-09T11:27:35.722Z,101020.29
2024-05-09T11:30:29.738Z,101025.33
2024-05-09T11:33:22.586Z,101022.45
2024-05-09T11:36:09.428Z,101021.78
2024-05-09T11:38:55.834Z,101022.64
2024-05-09T11:41:42.137Z,101015.80
2024-05-09T11:44:28.321Z,101013.56
2024-05-09T11:47:14.393Z,101012.73
2024-05-09T11:50:00.736Z,101005.14
2024-05-09T11:52:46.958Z,101004.44
2024-05-09T11:55:36.191Z,101004.36
2024-05-09T11:58:23.641Z,101004.58
2024-05-09T12:01:10.592Z,101006.45
2024-05-09T12:03:57.251Z,101005.47
2024-05-09T12:06:48.163Z,101008.21
2024-05-09T12:09:36.939Z,101002.45
2024-05-09T12:12:24.049Z,101000.20
2024-05-09T12:15:10.129Z,100997.41
2024-05-09T12:17:59.038Z,100995.24
2024-05-09T12:20:47.770Z,100990.27
2024-05-09T12:23:37.873Z,100984.32
2024-05-09T12:26:24.236Z,100980.91
2024-05-09T12:29:10.470Z,100979.83
2024-05-09T12:31:57.253Z,100977.67
2024-05-09T12:34:43.727Z,100980.27
2024-05-09T12:37:29.926Z,100972.70
2024-05-09T12:40:23.193Z,100971.72
2024-05-09T12:43:17.815Z,100967.63
2024-05-09T12:46:04.428Z,100963.12
2024-05-09T12:48:50.836Z,100963.55
2024-05-09T12:51:37.263Z,100960.94
2024-05-09T12:54:23.720Z,100955.42
2024-05-09T12:57:10.074Z,100950.28
2024-05-09T12:59:56.663Z,100950.69
2024-05-09T13:02:43.241Z,100948.55
2024-05-09T13:05:30.086Z,100948.22
2024-05-09T13:08:16.872Z,100947.29
2024-05-09T13:11:03.409Z,100939.22
2024-05-09T13:13:50.285Z,100936.12
2024-05-09T13:16:36.635Z,100936.05
2024-05-09T13:19:23.077Z,100928.29
2024-05-09T13:22:12.131Z,100930.64
2024-05-09T13:24:59.507Z,100924.47
2024-05-09T13:27:45.881Z,100920.42
2024-05-09T13:30:40.033Z,100920.45
2024-05-09T13:33:29.888Z,100916.18
2024-05-09T13:36:17.603Z,100913.73
2024-05-09T13:39:04.105Z,100919.14
2024-05-09T13:41:50.065Z,100910.30
2024-05-09T13:44:36.378Z,100912.98
2024-05-09T13:47:25.232Z,100906.59
2024-05-09T13:50:16.966Z,100906.30
2024-05-09T13:53:11.677Z,100906.38
2024-05-09T13:56:01.054Z,100899.87
2024-05-09T13:58:50.400Z,100898.42
2024-05-09T14:01:38.710Z,100896.20
2024-05-09T14:04:25.869Z,100888.00
2024-05-09T14:07:12.809Z,100883.34
2024-05-09T14:09:59.566Z,100890.15
2024-05-09T14:12:45.881Z,100880.91
2024-05-09T14:15:33.690Z,100878.69
2024-05-09T14:18:21.223Z,100874.29
2024-05-09T14:21:07.683Z,100874.65
2024-05-09T14:23:54.599Z,100868.37
2024-05-09T14:26:41.295Z,100866.89
2024-05-09T14:29:27.330Z,100869.48
2024-05-09T14:32:13.672Z,100865.23
2024-05-09T14:34:59.834Z,100863.98
2024-05-09T14:37:46.508Z,100866.59
2024-05-09T14:43:23.232Z,100864.07
2024-05-09T14:46:10.558Z,100861.68
2024-05-09T14:48:59.630Z,100856.06
2024-05-09T14:51:47.587Z,100857.23
2024-05-09T14:54:34.538Z,100854.56
2024-05-09T14:57:21.654Z,100845.71
2024-05-09T15:00:20.780Z,100841.31
2024-05-09T15:03:13.314Z,100839.60
2024-05-09T15:05:59.604Z,100841.45
2024-05-09T15:08:55.299Z,100841.19
2024-05-09T15:11:41.576Z,100840.30
2024-05-09T15:14:28.301Z,100840.11
2024-05-09T15:17:14.289Z,100841.13
2024-05-09T15:20:04.563Z,100835.85
2024-05-09T15:22:54.764Z,100835.09
2024-05-09T15:25:41.018Z,100826.05
2024-05-09T15:28:28.049Z,100823.53
2024-05-09T15:31:14.857Z,100822.67
2024-05-09T15:34:01.113Z,100825.59
2024-05-09T15:36:51.215Z,100820.02
2024-05-09T15:39:37.735Z,100813.93
2024-05-09T15:42:24.186Z,100808.33
2024-05-09T15:45:19.530Z,100804.16
2024-05-09T15:48:08.050Z,100804.07
2024-05-09T15:50:57.143Z,100807.70
2024-05-09T15:53:43.905Z,100799.35
2024-05-09T15:56:32.406Z,100797.03
2024-05-09T15:59:18.806Z,100792.09
2024-05-09T16:02:05.639Z,100798.23
2024-05-09T16:04:52.382Z,100793.96
2024-05-09T16:07:39.081Z,100794.14
2024-05-09T16:10:30.109Z,100793.34
2024-05-09T16:13:19.722Z,100791.41
2024-05-09T16:16:06.529Z,100787.36
2024-05-09T16:18:52.941Z,100787.45
2024-05-09T16:21:39.422Z,100784.52
2024-05-09T16:24:25.544Z,100780.73
2024-05-09T16:27:12.423Z,100780.89
2024-05-09T16:30:07.180Z,100779.87
2024-05-09T16:32:58.216Z,100778.78
2024-05-09T16:35:44.887Z,100777.27
2024-05-09T16:38:31.143Z,100779.88
2024-05-09T16:41:17.234Z,100777.38
2024-05-09T16:44:05.418Z,100777.30
2024-05-09T16:46:51.579Z,100778.90
2024-05-09T16:49:39.936Z,100775.67
2024-05-09T16:52:25.816Z,100776.63
2024-05-09T16:55:12.520Z,100777.69
2024-05-09T16:58:02.591Z,100783.56
2024-05-09T17:00:51.094Z,100778.45
2024-05-09T17:03:38.647Z,100779.70
2024-05-09T17:06:25.182Z,100774.60
2024-05-09T17:09:12.118Z,100773.73
2024-05-09T17:12:02.362Z,100776.34
2024-05-09T17:14:51.216Z,100773.77
2024-05-09T17:17:38.097Z,100775.50
2024-05-09T17:20:31.872Z,100774.03
2024-05-09T17:23:21.431Z,100775.50
2024-05-09T17:26:07.475Z,100774.88
2024-05-09T17:29:29.440Z,100775.33
2024-05-09T17:32:16.059Z,100777.38
2024-05-09T17:35:02.848Z,100778.95
2024-05-09T17:37:53.355Z,100777.38
2024-05-09T17:40:40.259Z,100775.04
2024-05-09T17:43:32.813Z,100774.73
2024-05-09T17:46:21.495Z,100775.21
2024-05-09T17:49:07.899Z,100779.57
2024-05-09T17:51:54.821Z,100775.43
2024-05-09T17:54:43.110Z,100781.17
2024-05-09T17:57:29.605Z,100777.60
2024-05-09T18:00:24.645Z,100776.38
2024-05-09T18:03:25.290Z,100776.77
2024-05-09T18:06:12.611Z,100777.37
2024-05-09T18:08:59.262Z,100778.20
2024-05-09T18:11:45.402Z,100775.85
2024-05-09T18:14:31.990Z,100775.25
2024-05-09T18:17:19.046Z,100773.63
2024-05-09T18:20:08.982Z,100776.60
2024-05-09T18:22:57.215Z,100770.88
2024-05-09T18:25:43.152Z,100776.52
2024-05-09T18:28:29.657Z,100778.61
2024-05-09T18:31:16.298Z,100779.23
2024-05-09T18:34:02.731Z,100781.99
2024-05-09T18:36:48.994Z,100783.48
2024-05-09T18:39:35.328Z,100788.04
2024-05-09T18:42:21.849Z,100792.13
2024-05-09T18:45:09.538Z,100796.67
2024-05-09T18:47:56.319Z,100799.98
2024-05-09T18:50:42.834Z,100805.17
2024-05-09T18:53:29.060Z,100805.13
2024-05-09T18:56:15.231Z,100811.87
2024-05-09T18:59:01.742Z,100814.01
2024-05-09T19:01:48.406Z,100816.44
2024-05-09T19:04:36.163Z,100817.97
2024-05-09T19:07:33.975Z,100819.45
2024-05-09T19:10:22.971Z,100820.94
2024-05-09T19:13:14.143Z,100822.19
2024-05-09T19:16:03.026Z,100828.59
2024-05-09T19:18:51.456Z,100826.61
2024-05-09T19:21:41.169Z,100828.89
2024-05-09T19:24:30.852Z,100824.31
2024-05-09T19:27:17.100Z,100826.44
2024-05-09T19:30:05.681Z,100826.83
2024-05-09T19:32:55.890Z,100828.34
2024-05-09T19:35:44.093Z,100829.77
2024-05-09T19:38:30.854Z,100832.70
2024-05-09T19:41:17.629Z,100835.27
2024-05-09T19:44:06.359Z,100835.31
2024-05-09T19:46:52.960Z,100836.71
2024-05-09T19:49:39.047Z,100835.89
2024-05-09T19:52:26.492Z,100835.55
2024-05-09T19:55:12.794Z,100832.64
2024-05-09T19:58:04.761Z,100831.00
2024-05-09T20:00:52.128Z,100835.14
2024-05-09T20:03:38.739Z,100834.94
2024-05-09T20:06:26.140Z,100834.30
2024-05-09T20:09:12.687Z,100841.72
2024-05-09T20:11:59.160Z,100837.98
2024-05-09T20:14:45.806Z,100841.21
2024-05-09T20:17:32.324Z,100840.80
2024-05-09T20:20:28.232Z,100840.34
2024-05-09T20:23:22.651Z,100839.90
2024-05-09T20:26:08.960Z,100838.21
2024-05-09T20:28:55.457Z,100845.08
2024-05-09T20:31:41.734Z,100843.76
2024-05-09T20:34:30.091Z,100842.61
2024-05-09T20:37:17.332Z,100836.92
2024-05-09T20:40:10.114Z,100842.20
2024-05-09T20:43:02.403Z,100838.06
2024-05-09T20:45:48.454Z,100840.85
2024-05-09T20:48:35.221Z,100836.78
2024-05-09T20:51:22.783Z,100837.59
2024-05-09T20:54:08.669Z,100837.19
2024-05-09T20:56:55.123Z,100839.39
2024-05-09T20:59:43.476Z,100838.80
2024-05-09T21:02:29.866Z,100840.35
2024-05-09T21:05:16.804Z,100838.63
2024-05-09T21:08:04.080Z,100844.02
2024-05-09T21:10:50.521Z,100845.00
2024-05-09T21:13:43.153Z,100846.83
2024-05-09T21:16:34.637Z,100847.61
2024-05-09T21:19:21.596Z,100843.38
2024-05-09T21:22:07.914Z,100846.10
2024-05-09T21:24:54.220Z,100844.28
2024-05-09T21:27:40.317Z,100843.56
2024-05-09T21:30:36.884Z,100842.63
2024-05-09T21:33:28.249Z,100839.61
2024-05-09T21:36:15.540Z,100839.54
2024-05-09T21:39:01.542Z,100836.84
2024-05-09T21:41:47.765Z,100838.85
2024-05-09T21:44:34.082Z,100836.15
2024-05-09T21:47:20.410Z,100837.07
2024-05-09T21:50:07.850Z,100837.79
2024-05-09T21:52:56.051Z,100837.99
2024-05-09T21:55:42.507Z,100838.33
2024-05-09T21:58:28.769Z,100838.54
2024-05-09T22:01:15.537Z,100836.86
2024-05-09T22:04:02.691Z,100838.15
2024-05-09T22:06:50.013Z,100833.83
2024-05-09T22:09:36.636Z,100834.56
2024-05-09T22:12:22.953Z,100833.55
2024-05-09T22:15:11.225Z,100832.71
2024-05-09T22:17:57.812Z,100831.73
2024-05-09T22:20:46.588Z,100830.42
2024-05-09T22:23:32.997Z,100831.56
2024-05-09T22:26:21.751Z,100831.14
2024-05-09T22:29:08.048Z,100835.23
2024-05-09T22:32:22.374Z,100832.73
2024-05-09T22:35:10.811Z,100832.12
2024-05-09T22:37:57.271Z,100831.48
2024-05-09T22:40:48.309Z,100832.62
2024-05-09T22:43:36.473Z,100830.97
2024-05-09T22:46:23.000Z,100831.39
2024-05-09T22:49:09.318Z,100831.82
2024-05-09T22:51:55.463Z,100834.11
2024-05-09T22:54:43.940Z,100829.48
2024-05-09T22:57:29.926Z,100830.58
2024-05-09T23:00:21.706Z,100832.74
2024-05-09T23:03:17.362Z,100830.90
2024-05-09T23:06:06.679Z,100829.55
2024-05-09T23:08:52.734Z,100831.33
2024-05-09T23:11:43.657Z,100829.27
2024-05-09T23:14:30.219Z,100822.83
2024-05-09T23:17:17.643Z,100820.05
2024-05-09T23:20:08.814Z,100819.20
2024-05-09T23:22:58.666Z,100818.36
2024-05-09T23:25:45.184Z,100818.41
2024-05-09T23:28:31.612Z,100818.96
2024-05-09T23:31:18.090Z,100820.39
2024-05-09T23:34:04.483Z,100818.73
2024-05-09T23:36:50.892Z,100819.16
2024-05-09T23:39:36.817Z,100816.48
2024-05-09T23:42:22.951Z,100816.05
2024-05-09T23:45:09.181Z,100811.45
2024-05-09T23:47:55.215Z,100804.24
2024-05-09T23:50:41.882Z,100808.46
2024-05-09T23:53:28.562Z,100808.88
2024-05-09T23:56:15.923Z,100805.98
2024-05-09T23:59:01.913Z,100802.95
